sensor_id;sensor_type;location;lat;lon;timestamp;pressure;altitude;pressure_sealevel;temperature;humidity
14273;BME280;7220;49.450;11.052;2022-09-01T00:01:28;98473.03;;;17.28;86.14
14273;BME280;7220;49.450;11.052;2022-09-01T00:05:29;98468.63;;;17.27;85.92
14273;BME280;7220;49.450;11.052;2022-09-01T00:09:32;98475.84;;;17.26;85.99
14273;BME280;7220;49.450;11.052;2022-09-01T00:13:33;98471.44;;;17.25;85.83
14273;BME280;7220;49.450;11.052;2022-09-01T00:17:33;98462.44;;;17.26;86.06
14273;BME280;7220;49.450;11.052;2022-09-01T00:21:39;98481.94;;;17.28;85.56
14273;BME280;7220;49.450;11.052;2022-09-01T00:25:40;98471.19;;;17.28;86.06
14273;BME280;7220;49.450;11.052;2022-09-01T00:29:41;98468.88;;;17.24;85.79
14273;BME280;7220;49.450;11.052;2022-09-01T00:33:41;98470.56;;;17.25;85.69
14273;BME280;7220;49.450;11.052;2022-09-01T00:37:42;98468.03;;;17.23;85.52
14273;BME280;7220;49.450;11.052;2022-09-01T00:41:43;98467.16;;;17.23;86.46
14273;BME280;7220;49.450;11.052;2022-09-01T00:45:43;98468.03;;;17.23;86.26
14273;BME280;7220;49.450;11.052;2022-09-01T00:49:46;98465.09;;;17.26;86.54
14273;BME280;7220;49.450;11.052;2022-09-01T00:53:48;98474.22;;;17.24;87.10
14273;BME280;7220;49.450;11.052;2022-09-01T00:57:49;98465.56;;;17.20;86.75
14273;BME280;7220;49.450;11.052;2022-09-01T01:01:49;98470.22;;;17.18;86.86
14273;BME280;7220;49.450;11.052;2022-09-01T01:05:52;98462.50;;;17.13;87.97
14273;BME280;7220;49.450;11.052;2022-09-01T01:09:57;98457.13;;;17.13;87.15
14273;BME280;7220;49.450;11.052;2022-09-01T01:14:04;98456.25;;;17.13;88.08
14273;BME280;7220;49.450;11.052;2022-09-01T01:18:12;98463.22;;;17.15;88.35
14273;BME280;7220;49.450;11.052;2022-09-01T01:22:18;98458.84;;;17.14;87.79
14273;BME280;7220;49.450;11.052;2022-09-01T01:26:39;98453.47;;;17.14;87.92
14273;BME280;7220;49.450;11.052;2022-09-01T01:30:43;98454.94;;;17.18;88.07
14273;BME280;7220;49.450;11.052;2022-09-01T01:34:44;98456.66;;;17.19;88.13
14273;BME280;7220;49.450;11.052;2022-09-01T01:38:48;98448.47;;;17.21;88.19
14273;BME280;7220;49.450;11.052;2022-09-01T01:42:50;98446.75;;;17.20;87.85
14273;BME280;7220;49.450;11.052;2022-09-01T01:46:53;98447.63;;;17.21;88.63
14273;BME280;7220;49.450;11.052;2022-09-01T01:50:54;98443.47;;;17.16;88.23
14273;BME280;7220;49.450;11.052;2022-09-01T01:54:58;98453.47;;;17.14;88.68
14273;BME280;7220;49.450;11.052;2022-09-01T01:58:58;98436.09;;;17.07;89.05
14273;BME280;7220;49.450;11.052;2022-09-01T02:03:01;98442.69;;;17.03;88.83
14273;BME280;7220;49.450;11.052;2022-09-01T02:07:01;98441.34;;;16.97;89.47
14273;BME280;7220;49.450;11.052;2022-09-01T02:11:03;98445.28;;;16.92;90.30
14273;BME280;7220;49.450;11.052;2022-09-01T02:15:04;98438.34;;;16.89;89.95
14273;BME280;7220;49.450;11.052;2022-09-01T02:19:07;98444.06;;;16.84;90.32
14273;BME280;7220;49.450;11.052;2022-09-01T02:23:09;98441.84;;;16.78;90.74
14273;BME280;7220;49.450;11.052;2022-09-01T02:27:11;98428.78;;;16.74;91.06
14273;BME280;7220;49.450;11.052;2022-09-01T02:31:11;98437.03;;;16.70;90.72
14273;BME280;7220;49.450;11.052;2022-09-01T02:35:11;98414.31;;;16.63;91.49
14273;BME280;7220;49.450;11.052;2022-09-01T02:39:14;98433.97;;;16.64;91.69
14273;BME280;7220;49.450;11.052;2022-09-01T02:43:16;98424.34;;;16.61;92.53
14273;BME280;7220;49.450;11.052;2022-09-01T02:47:20;98440.53;;;16.60;92.73
14273;BME280;7220;49.450;11.052;2022-09-01T02:51:23;98425.66;;;16.55;92.60
14273;BME280;7220;49.450;11.052;2022-09-01T02:55:24;98427.84;;;16.50;93.54
14273;BME280;7220;49.450;11.052;2022-09-01T02:59:26;98419.25;;;16.45;93.20
14273;BME280;7220;49.450;11.052;2022-09-01T03:03:28;98412.63;;;16.38;93.66
14273;BME280;7220;49.450;11.052;2022-09-01T03:07:28;98412.13;;;16.33;93.72
14273;BME280;7220;49.450;11.052;2022-09-01T03:11:31;98411.38;;;16.31;94.02
14273;BME280;7220;49.450;11.052;2022-09-01T03:15:33;98422.56;;;16.24;94.55
14273;BME280;7220;49.450;11.052;2022-09-01T03:19:35;98413.78;;;16.22;94.81
14273;BME280;7220;49.450;11.052;2022-09-01T03:23:44;98416.66;;;16.19;95.11
14273;BME280;7220;49.450;11.052;2022-09-01T03:27:45;98409.84;;;16.15;95.63
14273;BME280;7220;49.450;11.052;2022-09-01T03:31:46;98402.00;;;16.12;95.47
14273;BME280;7220;49.450;11.052;2022-09-01T03:35:48;98409.31;;;16.10;95.64
14273;BME280;7220;49.450;11.052;2022-09-01T03:39:48;98404.38;;;16.04;95.68
14273;BME280;7220;49.450;11.052;2022-09-01T03:43:49;98401.81;;;16.02;95.53
14273;BME280;7220;49.450;11.052;2022-09-01T03:47:53;98407.63;;;15.96;96.22
14273;BME280;7220;49.450;11.052;2022-09-01T03:51:53;98402.28;;;15.96;96.67
14273;BME280;7220;49.450;11.052;2022-09-01T03:55:53;98398.84;;;15.94;95.49
14273;BME280;7220;49.450;11.052;2022-09-01T03:59:54;98403.56;;;15.90;96.07
14273;BME280;7220;49.450;11.052;2022-09-01T04:03:56;98406.59;;;15.86;95.94
14273;BME280;7220;49.450;11.052;2022-09-01T04:08:01;98408.41;;;15.85;96.21
14273;BME280;7220;49.450;11.052;2022-09-01T04:12:03;98402.31;;;15.83;96.61
14273;BME280;7220;49.450;11.052;2022-09-01T04:16:20;98419.31;;;15.82;96.28
14273;BME280;7220;49.450;11.052;2022-09-01T04:20:41;98414.28;;;15.77;96.94
14273;BME280;7220;49.450;11.052;2022-09-01T04:24:48;98410.22;;;15.72;96.37
14273;BME280;7220;49.450;11.052;2022-09-01T04:28:49;98407.03;;;15.67;96.95
14273;BME280;7220;49.450;11.052;2022-09-01T04:32:50;98410.66;;;15.66;96.90
14273;BME280;7220;49.450;11.052;2022-09-01T04:36:55;98408.44;;;15.59;96.91
14273;BME280;7220;49.450;11.052;2022-09-01T04:40:57;98411.09;;;15.59;96.31
14273;BME280;7220;49.450;11.052;2022-09-01T04:44:58;98426.41;;;15.57;96.34
14273;BME280;7220;49.450;11.052;2022-09-01T04:49:04;98424.94;;;15.53;96.54
14273;BME280;7220;49.450;11.052;2022-09-01T04:53:10;98424.19;;;15.51;97.39
14273;BME280;7220;49.450;11.052;2022-09-01T04:57:11;98426.97;;;15.50;97.51
14273;BME280;7220;49.450;11.052;2022-09-01T05:01:17;98438.66;;;15.49;97.43
14273;BME280;7220;49.450;11.052;2022-09-01T05:05:22;98430.94;;;15.44;97.02
14273;BME280;7220;49.450;11.052;2022-09-01T05:09:22;98427.63;;;15.40;97.15
14273;BME280;7220;49.450;11.052;2022-09-01T05:13:24;98431.16;;;15.41;97.09
14273;BME280;7220;49.450;11.052;2022-09-01T05:17:26;98430.38;;;15.39;97.87
14273;BME280;7220;49.450;11.052;2022-09-01T05:21:28;98438.41;;;15.39;97.73
14273;BME280;7220;49.450;11.052;2022-09-01T05:25:28;98430.63;;;15.36;97.54
14273;BME280;7220;49.450;11.052;2022-09-01T05:29:29;98444.97;;;15.35;98.23
14273;BME280;7220;49.450;11.052;2022-09-01T05:33:29;98443.03;;;15.37;97.53
14273;BME280;7220;49.450;11.052;2022-09-01T05:37:31;98435.66;;;15.40;98.03
14273;BME280;7220;49.450;11.052;2022-09-01T05:41:31;98439.19;;;15.41;97.50
14273;BME280;7220;49.450;11.052;2022-09-01T05:45:35;98434.06;;;15.38;98.18
14273;BME280;7220;49.450;11.052;2022-09-01T05:49:35;98440.91;;;15.42;96.70
14273;BME280;7220;49.450;11.052;2022-09-01T05:53:36;98440.69;;;15.45;96.89
14273;BME280;7220;49.450;11.052;2022-09-01T05:57:37;98444.09;;;15.47;97.35
14273;BME280;7220;49.450;11.052;2022-09-01T06:01:39;98445.28;;;15.56;96.50
14273;BME280;7220;49.450;11.052;2022-09-01T06:05:40;98444.09;;;15.60;95.74
14273;BME280;7220;49.450;11.052;2022-09-01T06:09:44;98450.72;;;15.67;95.46
14273;BME280;7220;49.450;11.052;2022-09-01T06:13:45;98450.41;;;15.72;94.99
14273;BME280;7220;49.450;11.052;2022-09-01T06:17:46;98451.16;;;15.74;94.89
14273;BME280;7220;49.450;11.052;2022-09-01T06:21:46;98457.16;;;15.77;94.87
14273;BME280;7220;49.450;11.052;2022-09-01T06:25:48;98456.06;;;15.80;93.81
14273;BME280;7220;49.450;11.052;2022-09-01T06:29:48;98465.53;;;15.86;93.72
14273;BME280;7220;49.450;11.052;2022-09-01T06:33:53;98464.13;;;15.93;92.69
14273;BME280;7220;49.450;11.052;2022-09-01T06:37:55;98452.56;;;15.92;92.24
14273;BME280;7220;49.450;11.052;2022-09-01T06:41:55;98456.72;;;15.97;91.35
14273;BME280;7220;49.450;11.052;2022-09-01T06:46:00;98464.22;;;16.04;91.26
14273;BME280;7220;49.450;11.052;2022-09-01T06:50:02;98461.22;;;16.09;91.64
14273;BME280;7220;49.450;11.052;2022-09-01T06:54:03;98457.13;;;16.16;90.71
14273;BME280;7220;49.450;11.052;2022-09-01T06:58:08;98463.63;;;16.25;91.15
14273;BME280;7220;49.450;11.052;2022-09-01T07:02:10;98466.09;;;16.28;89.95
14273;BME280;7220;49.450;11.052;2022-09-01T07:06:16;98484.53;;;16.33;88.95
14273;BME280;7220;49.450;11.052;2022-09-01T07:10:17;98474.53;;;16.35;88.88
14273;BME280;7220;49.450;11.052;2022-09-01T07:14:21;98470.34;;;16.44;88.46
14273;BME280;7220;49.450;11.052;2022-09-01T07:18:24;98473.31;;;16.52;88.13
14273;BME280;7220;49.450;11.052;2022-09-01T07:22:25;98464.69;;;16.60;87.91
14273;BME280;7220;49.450;11.052;2022-09-01T07:26:26;98475.69;;;16.68;87.57
14273;BME280;7220;49.450;11.052;2022-09-01T07:30:28;98467.44;;;16.71;86.92
14273;BME280;7220;49.450;11.052;2022-09-01T07:34:30;98481.63;;;16.84;86.78
14273;BME280;7220;49.450;11.052;2022-09-01T07:38:31;98479.16;;;16.94;87.01
14273;BME280;7220;49.450;11.052;2022-09-01T07:42:32;98484.44;;;17.07;86.29
14273;BME280;7220;49.450;11.052;2022-09-01T07:46:32;98458.19;;;17.11;85.13
14273;BME280;7220;49.450;11.052;2022-09-01T07:50:34;98472.91;;;17.29;84.77
14273;BME280;7220;49.450;11.052;2022-09-01T07:54:35;98470.34;;;17.39;84.12
14273;BME280;7220;49.450;11.052;2022-09-01T07:58:38;98474.78;;;17.52;83.02
14273;BME280;7220;49.450;11.052;2022-09-01T08:02:40;98480.56;;;17.58;81.67
14273;BME280;7220;49.450;11.052;2022-09-01T08:06:43;98475.06;;;17.60;81.28
14273;BME280;7220;49.450;11.052;2022-09-01T08:10:43;98478.34;;;17.63;81.41
14273;BME280;7220;49.450;11.052;2022-09-01T08:14:45;98478.75;;;17.70;80.31
14273;BME280;7220;49.450;11.052;2022-09-01T08:18:47;98480.66;;;17.79;80.36
14273;BME280;7220;49.450;11.052;2022-09-01T08:22:47;98486.56;;;17.85;80.20
14273;BME280;7220;49.450;11.052;2022-09-01T08:26:48;98477.03;;;17.92;79.82
14273;BME280;7220;49.450;11.052;2022-09-01T08:30:48;98485.50;;;17.99;79.04
14273;BME280;7220;49.450;11.052;2022-09-01T08:34:48;98480.22;;;18.08;78.21
14273;BME280;7220;49.450;11.052;2022-09-01T08:38:49;98477.78;;;18.17;77.38
14273;BME280;7220;49.450;11.052;2022-09-01T08:47:11;98481.19;;;18.41;76.06
14273;BME280;7220;49.450;11.052;2022-09-01T08:51:20;98483.13;;;18.51;75.73
14273;BME280;7220;49.450;11.052;2022-09-01T08:55:26;98485.03;;;18.60;74.95
14273;BME280;7220;49.450;11.052;2022-09-01T08:59:28;98482.19;;;18.73;73.48
14273;BME280;7220;49.450;11.052;2022-09-01T09:03:51;98491.81;;;18.87;72.05
14273;BME280;7220;49.450;11.052;2022-09-01T09:08:05;98480.75;;;19.01;71.08
14273;BME280;7220;49.450;11.052;2022-09-01T09:12:35;98477.28;;;19.11;70.47
14273;BME280;7220;49.450;11.052;2022-09-01T09:16:42;98480.25;;;19.29;68.71
14273;BME280;7220;49.450;11.052;2022-09-01T09:20:44;98487.88;;;19.45;67.44
14273;BME280;7220;49.450;11.052;2022-09-01T09:24:54;98492.88;;;19.70;66.43
14273;BME280;7220;49.450;11.052;2022-09-01T09:28:59;98478.25;;;19.94;64.55
14273;BME280;7220;49.450;11.052;2022-09-01T09:33:07;98478.19;;;20.15;64.60
14273;BME280;7220;49.450;11.052;2022-09-01T09:37:22;98474.59;;;20.46;64.31
14273;BME280;7220;49.450;11.052;2022-09-01T09:41:22;98475.06;;;20.71;63.93
14273;BME280;7220;49.450;11.052;2022-09-01T09:49:29;98490.88;;;21.24;60.90
14273;BME280;7220;49.450;11.052;2022-09-01T09:53:30;98471.94;;;21.44;58.83
14273;BME280;7220;49.450;11.052;2022-09-01T09:57:38;98484.44;;;21.65;57.36
14273;BME280;7220;49.450;11.052;2022-09-01T10:01:40;98468.75;;;21.78;57.91
14273;BME280;7220;49.450;11.052;2022-09-01T10:05:42;98468.16;;;21.84;57.03
14273;BME280;7220;49.450;11.052;2022-09-01T10:09:43;98466.56;;;21.92;57.25
14273;BME280;7220;49.450;11.052;2022-09-01T10:13:43;98465.38;;;22.04;56.20
14273;BME280;7220;49.450;11.052;2022-09-01T10:17:44;98455.97;;;22.08;55.04
14273;BME280;7220;49.450;11.052;2022-09-01T10:21:46;98461.38;;;22.08;54.95
14273;BME280;7220;49.450;11.052;2022-09-01T10:25:47;98459.56;;;21.99;55.32
14273;BME280;7220;49.450;11.052;2022-09-01T10:29:55;98448.63;;;21.90;54.32
14273;BME280;7220;49.450;11.052;2022-09-01T10:33:57;98461.44;;;21.98;54.62
14273;BME280;7220;49.450;11.052;2022-09-01T10:38:02;98464.38;;;22.05;53.74
14273;BME280;7220;49.450;11.052;2022-09-01T10:42:16;98461.94;;;22.12;51.73
14273;BME280;7220;49.450;11.052;2022-09-01T10:50:31;98468.94;;;22.42;52.02
14273;BME280;7220;49.450;11.052;2022-09-01T10:59:09;98455.41;;;22.78;50.39
14273;BME280;7220;49.450;11.052;2022-09-01T11:07:32;98452.00;;;23.30;48.10
14273;BME280;7220;49.450;11.052;2022-09-01T11:11:46;98456.91;;;23.53;47.09
14273;BME280;7220;49.450;11.052;2022-09-01T11:15:49;98441.25;;;23.73;47.01
14273;BME280;7220;49.450;11.052;2022-09-01T11:28:36;98452.28;;;24.41;44.85
14273;BME280;7220;49.450;11.052;2022-09-01T11:32:37;98442.31;;;24.50;43.61
14273;BME280;7220;49.450;11.052;2022-09-01T11:40:53;98430.56;;;24.49;42.28
14273;BME280;7220;49.450;11.052;2022-09-01T11:45:15;98438.34;;;24.36;43.43
14273;BME280;7220;49.450;11.052;2022-09-01T11:49:27;98431.16;;;24.18;44.79
14273;BME280;7220;49.450;11.052;2022-09-01T11:53:29;98432.44;;;23.98;44.74
14273;BME280;7220;49.450;11.052;2022-09-01T12:01:35;98439.97;;;23.33;46.85
14273;BME280;7220;49.450;11.052;2022-09-01T12:05:36;98446.59;;;23.12;48.00
14273;BME280;7220;49.450;11.052;2022-09-01T12:09:44;98433.72;;;22.96;48.03
14273;BME280;7220;49.450;11.052;2022-09-01T12:14:07;98442.13;;;22.85;48.52
14273;BME280;7220;49.450;11.052;2022-09-01T12:18:12;98438.91;;;22.72;49.16
14273;BME280;7220;49.450;11.052;2022-09-01T12:22:16;98427.00;;;22.64;49.62
14273;BME280;7220;49.450;11.052;2022-09-01T12:26:23;98424.06;;;22.58;49.57
14273;BME280;7220;49.450;11.052;2022-09-01T12:30:25;98433.19;;;22.57;50.07
14273;BME280;7220;49.450;11.052;2022-09-01T12:38:31;98430.25;;;22.68;50.16
14273;BME280;7220;49.450;11.052;2022-09-01T12:42:33;98420.66;;;22.74;49.57
14273;BME280;7220;49.450;11.052;2022-09-01T12:46:42;98430.28;;;22.86;49.45
14273;BME280;7220;49.450;11.052;2022-09-01T12:50:44;98424.47;;;22.99;49.11
14273;BME280;7220;49.450;11.052;2022-09-01T12:54:46;98418.59;;;23.12;49.35
14273;BME280;7220;49.450;11.052;2022-09-01T12:58:49;98418.22;;;23.25;49.09
14273;BME280;7220;49.450;11.052;2022-09-01T13:06:59;98415.31;;;23.71;46.88
14273;BME280;7220;49.450;11.052;2022-09-01T13:11:04;98412.19;;;23.92;46.21
14273;BME280;7220;49.450;11.052;2022-09-01T13:15:06;98419.75;;;24.06;45.13
14273;BME280;7220;49.450;11.052;2022-09-01T13:19:06;98407.94;;;24.24;45.00
14273;BME280;7220;49.450;11.052;2022-09-01T13:23:08;98393.91;;;24.45;44.54
14273;BME280;7220;49.450;11.052;2022-09-01T13:27:08;98391.88;;;24.64;43.61
14273;BME280;7220;49.450;11.052;2022-09-01T13:31:10;98386.84;;;24.77;42.92
14273;BME280;7220;49.450;11.052;2022-09-01T13:35:19;98393.13;;;25.02;42.21
14273;BME280;7220;49.450;11.052;2022-09-01T13:39:20;98381.22;;;25.28;41.23
14273;BME280;7220;49.450;11.052;2022-09-01T13:43:22;98397.69;;;25.35;39.30
14273;BME280;7220;49.450;11.052;2022-09-01T13:47:22;98391.59;;;25.41;40.08
14273;BME280;7220;49.450;11.052;2022-09-01T13:51:25;98392.63;;;25.40;38.56
14273;BME280;7220;49.450;11.052;2022-09-01T13:55:29;98383.31;;;25.82;37.93
14273;BME280;7220;49.450;11.052;2022-09-01T13:59:29;98384.69;;;26.26;38.01
14273;BME280;7220;49.450;11.052;2022-09-01T14:03:31;98378.56;;;26.24;37.93
14273;BME280;7220;49.450;11.052;2022-09-01T14:07:32;98373.38;;;26.38;35.70
14273;BME280;7220;49.450;11.052;2022-09-01T14:11:32;98386.38;;;26.82;35.81
14273;BME280;7220;49.450;11.052;2022-09-01T14:15:34;98378.16;;;27.05;35.59
14273;BME280;7220;49.450;11.052;2022-09-01T14:19:34;98360.81;;;27.21;33.91
14273;BME280;7220;49.450;11.052;2022-09-01T14:23:35;98365.16;;;27.31;34.62
14273;BME280;7220;49.450;11.052;2022-09-01T14:27:36;98348.72;;;27.54;35.17
14273;BME280;7220;49.450;11.052;2022-09-01T14:31:37;98349.28;;;27.79;34.06
14273;BME280;7220;49.450;11.052;2022-09-01T14:35:39;98360.09;;;28.17;33.79
14273;BME280;7220;49.450;11.052;2022-09-01T14:39:39;98346.47;;;28.61;32.60
14273;BME280;7220;49.450;11.052;2022-09-01T14:43:40;98349.75;;;28.34;33.26
14273;BME280;7220;49.450;11.052;2022-09-01T14:47:42;98348.16;;;28.62;31.99
14273;BME280;7220;49.450;11.052;2022-09-01T14:51:43;98340.19;;;28.45;32.90
14273;BME280;7220;49.450;11.052;2022-09-01T14:55:43;98332.53;;;28.56;32.77
14273;BME280;7220;49.450;11.052;2022-09-01T14:59:45;98334.47;;;28.62;31.68
14273;BME280;7220;49.450;11.052;2022-09-01T15:03:46;98317.84;;;28.57;32.46
14273;BME280;7220;49.450;11.052;2022-09-01T15:07:47;98317.28;;;28.25;32.50
14273;BME280;7220;49.450;11.052;2022-09-01T15:11:47;98323.19;;;27.92;32.95
14273;BME280;7220;49.450;11.052;2022-09-01T15:15:48;98318.59;;;27.92;33.16
14273;BME280;7220;49.450;11.052;2022-09-01T15:19:48;98311.69;;;27.81;34.41
14273;BME280;7220;49.450;11.052;2022-09-01T15:23:48;98313.25;;;27.69;34.58
14273;BME280;7220;49.450;11.052;2022-09-01T15:27:49;98314.72;;;27.27;35.02
14273;BME280;7220;49.450;11.052;2022-09-01T15:31:50;98318.50;;;26.87;35.45
14273;BME280;7220;49.450;11.052;2022-09-01T15:35:50;98318.72;;;26.39;36.46
14273;BME280;7220;49.450;11.052;2022-09-01T15:39:50;98329.44;;;26.01;37.18
14273;BME280;7220;49.450;11.052;2022-09-01T15:43:51;98320.09;;;25.64;37.70
14273;BME280;7220;49.450;11.052;2022-09-01T15:47:52;98332.41;;;25.35;38.55
14273;BME280;7220;49.450;11.052;2022-09-01T15:51:54;98329.22;;;25.15;38.63
14273;BME280;7220;49.450;11.052;2022-09-01T15:55:55;98321.75;;;24.92;39.58
14273;BME280;7220;49.450;11.052;2022-09-01T15:59:56;98327.38;;;24.74;40.03
14273;BME280;7220;49.450;11.052;2022-09-01T16:03:57;98323.63;;;24.58;40.68
14273;BME280;7220;49.450;11.052;2022-09-01T16:07:58;98320.75;;;24.35;40.52
14273;BME280;7220;49.450;11.052;2022-09-01T16:12:00;98326.78;;;24.21;40.60
14273;BME280;7220;49.450;11.052;2022-09-01T16:20:45;98317.06;;;23.93;41.13
14273;BME280;7220;49.450;11.052;2022-09-01T16:24:50;98323.97;;;23.79;40.73
14273;BME280;7220;49.450;11.052;2022-09-01T16:28:55;98325.25;;;23.67;40.59
14273;BME280;7220;49.450;11.052;2022-09-01T16:32:58;98329.91;;;23.48;40.68
14273;BME280;7220;49.450;11.052;2022-09-01T16:41:31;98312.50;;;23.25;41.55
14273;BME280;7220;49.450;11.052;2022-09-01T16:54:47;98319.06;;;22.96;41.59
14273;BME280;7220;49.450;11.052;2022-09-01T16:58:49;98328.16;;;22.87;41.81
14273;BME280;7220;49.450;11.052;2022-09-01T17:15:46;98326.25;;;22.43;44.41
14273;BME280;7220;49.450;11.052;2022-09-01T17:19:48;98327.31;;;22.32;44.63
14273;BME280;7220;49.450;11.052;2022-09-01T17:23:59;98334.81;;;22.20;45.00
14273;BME280;7220;49.450;11.052;2022-09-01T17:28:09;98322.66;;;22.06;45.20
14273;BME280;7220;49.450;11.052;2022-09-01T17:45:19;98335.47;;;21.58;45.85
14273;BME280;7220;49.450;11.052;2022-09-01T17:53:38;98346.03;;;21.41;46.49
14273;BME280;7220;49.450;11.052;2022-09-01T17:57:53;98348.63;;;21.33;46.85
14273;BME280;7220;49.450;11.052;2022-09-01T18:06:27;98350.97;;;21.08;47.47
14273;BME280;7220;49.450;11.052;2022-09-01T18:10:49;98345.59;;;20.99;47.72
14273;BME280;7220;49.450;11.052;2022-09-01T18:15:00;98345.59;;;20.89;48.17
14273;BME280;7220;49.450;11.052;2022-09-01T18:19:16;98356.13;;;20.82;48.31
14273;BME280;7220;49.450;11.052;2022-09-01T18:23:18;98355.13;;;20.73;48.56
14273;BME280;7220;49.450;11.052;2022-09-01T18:27:19;98355.25;;;20.62;48.95
14273;BME280;7220;49.450;11.052;2022-09-01T18:36:30;98366.91;;;20.53;49.23
14273;BME280;7220;49.450;11.052;2022-09-01T18:53:39;98375.97;;;20.22;50.84
14273;BME280;7220;49.450;11.052;2022-09-01T18:57:48;98381.19;;;20.14;51.01
14273;BME280;7220;49.450;11.052;2022-09-01T19:02:00;98380.06;;;20.07;51.29
14273;BME280;7220;49.450;11.052;2022-09-01T19:10:23;98377.75;;;19.92;51.61
14273;BME280;7220;49.450;11.052;2022-09-01T19:18:34;98385.91;;;19.81;51.59
14273;BME280;7220;49.450;11.052;2022-09-01T19:23:05;98396.41;;;19.74;51.36
14273;BME280;7220;49.450;11.052;2022-09-01T19:27:09;98387.13;;;19.67;51.35
14273;BME280;7220;49.450;11.052;2022-09-01T19:31:27;98395.91;;;19.59;50.92
14273;BME280;7220;49.450;11.052;2022-09-01T19:35:32;98391.31;;;19.50;51.09
14273;BME280;7220;49.450;11.052;2022-09-01T19:39:39;98393.81;;;19.42;51.52
14273;BME280;7220;49.450;11.052;2022-09-01T19:43:41;98390.22;;;19.31;51.60
14273;BME280;7220;49.450;11.052;2022-09-01T19:48:06;98391.63;;;19.26;50.77
14273;BME280;7220;49.450;11.052;2022-09-01T20:00:56;98400.09;;;19.00;50.92
14273;BME280;7220;49.450;11.052;2022-09-01T20:05:09;98397.31;;;18.90;51.46
14273;BME280;7220;49.450;11.052;2022-09-01T20:09:19;98390.84;;;18.81;50.92
14273;BME280;7220;49.450;11.052;2022-09-01T20:14:29;98391.03;;;18.68;50.94
14273;BME280;7220;49.450;11.052;2022-09-01T20:18:06;98401.09;;;18.66;50.65
14273;BME280;7220;49.450;11.052;2022-09-01T20:30:28;98400.06;;;18.46;51.57
14273;BME280;7220;49.450;11.052;2022-09-01T20:34:38;98392.41;;;18.30;52.34
14273;BME280;7220;49.450;11.052;2022-09-01T20:38:55;98391.94;;;18.25;52.65
14273;BME280;7220;49.450;11.052;2022-09-01T20:43:25;98402.72;;;18.13;52.80
14273;BME280;7220;49.450;11.052;2022-09-01T20:47:29;98405.91;;;18.07;53.40
14273;BME280;7220;49.450;11.052;2022-09-01T20:51:54;98412.78;;;18.00;53.87
14273;BME280;7220;49.450;11.052;2022-09-01T20:56:04;98408.94;;;17.91;54.31
14273;BME280;7220;49.450;11.052;2022-09-01T21:00:09;98405.66;;;17.88;54.24
14273;BME280;7220;49.450;11.052;2022-09-01T21:12:38;98405.94;;;17.62;54.88
14273;BME280;7220;49.450;11.052;2022-09-01T21:16:52;98415.19;;;17.58;55.56
14273;BME280;7220;49.450;11.052;2022-09-01T21:21:17;98409.84;;;17.46;55.86
14273;BME280;7220;49.450;11.052;2022-09-01T21:25:20;98408.56;;;17.39;56.38
14273;BME280;7220;49.450;11.052;2022-09-01T21:29:45;98412.50;;;17.35;55.92
14273;BME280;7220;49.450;11.052;2022-09-01T21:33:42;98408.81;;;17.25;56.53
14273;BME280;7220;49.450;11.052;2022-09-01T21:37:43;98408.06;;;17.23;56.23
14273;BME280;7220;49.450;11.052;2022-09-01T21:41:43;98410.63;;;17.13;56.57
14273;BME280;7220;49.450;11.052;2022-09-01T21:45:44;98412.94;;;17.06;56.68
14273;BME280;7220;49.450;11.052;2022-09-01T21:49:44;98397.53;;;16.97;57.71
14273;BME280;7220;49.450;11.052;2022-09-01T21:53:45;98404.09;;;16.93;57.94
14273;BME280;7220;49.450;11.052;2022-09-01T21:57:45;98395.66;;;16.86;58.24
14273;BME280;7220;49.450;11.052;2022-09-01T22:01:45;98402.34;;;16.80;58.23
14273;BME280;7220;49.450;11.052;2022-09-01T22:05:46;98391.31;;;16.72;58.42
14273;BME280;7220;49.450;11.052;2022-09-01T22:09:46;98388.38;;;16.64;58.44
14273;BME280;7220;49.450;11.052;2022-09-01T22:13:48;98402.25;;;16.58;58.41
14273;BME280;7220;49.450;11.052;2022-09-01T22:17:49;98385.88;;;16.49;59.31
14273;BME280;7220;49.450;11.052;2022-09-01T22:21:50;98388.78;;;16.46;59.08
14273;BME280;7220;49.450;11.052;2022-09-01T22:25:51;98390.09;;;16.40;60.11
14273;BME280;7220;49.450;11.052;2022-09-01T22:29:51;98380.66;;;16.35;60.25
14273;BME280;7220;49.450;11.052;2022-09-01T22:33:52;98382.84;;;16.30;60.35
14273;BME280;7220;49.450;11.052;2022-09-01T22:37:53;98379.88;;;16.21;59.54
14273;BME280;7220;49.450;11.052;2022-09-01T22:41:53;98385.25;;;16.21;60.49
14273;BME280;7220;49.450;11.052;2022-09-01T22:45:55;98392.78;;;16.16;59.73
14273;BME280;7220;49.450;11.052;2022-09-01T22:49:55;98404.81;;;16.11;60.69
14273;BME280;7220;49.450;11.052;2022-09-01T22:53:56;98385.13;;;15.99;60.99
14273;BME280;7220;49.450;11.052;2022-09-01T22:57:56;98401.31;;;15.97;60.49
14273;BME280;7220;49.450;11.052;2022-09-01T23:01:57;98401.75;;;15.91;60.51
14273;BME280;7220;49.450;11.052;2022-09-01T23:06:06;98406.59;;;15.86;60.58
14273;BME280;7220;49.450;11.052;2022-09-01T23:10:07;98397.69;;;15.72;60.74
14273;BME280;7220;49.450;11.052;2022-09-01T23:14:08;98399.50;;;15.72;61.89
14273;BME280;7220;49.450;11.052;2022-09-01T23:18:09;98396.50;;;15.64;61.83
14273;BME280;7220;49.450;11.052;2022-09-01T23:22:09;98401.56;;;15.55;62.02
14273;BME280;7220;49.450;11.052;2022-09-01T23:26:11;98396.44;;;15.52;61.60
14273;BME280;7220;49.450;11.052;2022-09-01T23:30:13;98386.88;;;15.48;62.63
14273;BME280;7220;49.450;11.052;2022-09-01T23:34:13;98396.13;;;15.44;62.82
14273;BME280;7220;49.450;11.052;2022-09-01T23:38:15;98390.22;;;15.39;63.03
14273;BME280;7220;49.450;11.052;2022-09-01T23:42:17;98392.38;;;15.34;63.01
14273;BME280;7220;49.450;11.052;2022-09-01T23:46:21;98383.81;;;15.28;62.48
14273;BME280;7220;49.450;11.052;2022-09-01T23:50:22;98379.84;;;15.21;63.19
14273;BME280;7220;49.450;11.052;2022-09-01T23:54:22;98371.28;;;15.16;63.54
14273;BME280;7220;49.450;11.052;2022-09-01T23:58:24;98367.88;;;15.14;63.44
